createdAt,value
2019-02-17T00:00:13.311Z,8.47
2019-02-17T00:06:08.313Z,11.17
2019-02-17T00:12:03.317Z,10.76
2019-02-17T00:17:58.324Z,11.72
2019-02-17T00:23:53.343Z,13.47
2019-02-17T00:29:48.347Z,15.89
2019-02-17T00:35:43.309Z,29.18
2019-02-17T00:41:38.329Z,11.49
2019-02-17T00:47:33.321Z,15.61
2019-02-17T00:53:28.323Z,15.61
2019-02-17T00:59:23.356Z,9.88
2019-02-17T01:05:18.347Z,9.95
2019-02-17T01:11:13.418Z,8.85
2019-02-17T01:17:08.395Z,10.04
2019-02-17T01:23:03.350Z,9.43
2019-02-17T01:28:58.397Z,9.21
2019-02-17T01:34:53.358Z,8.93
2019-02-17T01:40:48.391Z,10.28
2019-02-17T01:46:43.380Z,8.96
2019-02-17T01:52:38.402Z,10.13
2019-02-17T01:58:33.370Z,9.72
2019-02-17T02:04:28.374Z,9.84
2019-02-17T02:10:23.364Z,8.77
2019-02-17T02:16:18.406Z,9.07
2019-02-17T02:22:13.396Z,8.95
2019-02-17T02:28:08.404Z,9.65
2019-02-17T02:34:03.405Z,9.21
2019-02-17T02:39:58.400Z,8.72
2019-02-17T02:45:53.381Z,15.59
2019-02-17T02:51:48.381Z,9.29
2019-02-17T02:57:43.405Z,8.89
2019-02-17T03:03:38.403Z,7.12
2019-02-17T03:09:33.404Z,7.77
2019-02-17T03:15:28.396Z,8.42
2019-02-17T03:21:23.398Z,8.97
2019-02-17T03:27:18.415Z,9.47
2019-02-17T03:33:13.411Z,12.03
2019-02-17T03:39:08.430Z,9.72
2019-02-17T03:45:03.453Z,8.47
2019-02-17T03:50:58.450Z,7.7
2019-02-17T03:56:53.451Z,7.19
2019-02-17T04:02:48.427Z,6.62
2019-02-17T04:08:43.426Z,6.88
2019-02-17T04:14:38.436Z,7.46
2019-02-17T04:20:33.445Z,8.07
2019-02-17T04:26:28.445Z,8.6
2019-02-17T04:32:23.438Z,7.76
2019-02-17T04:38:18.445Z,6.61
2019-02-17T04:44:13.480Z,6.76
2019-02-17T04:50:08.503Z,7.44
2019-02-17T04:56:03.462Z,9.09
2019-02-17T05:01:58.528Z,9.17
2019-02-17T05:07:53.474Z,8.63
2019-02-17T05:13:48.480Z,8.21
2019-02-17T05:19:43.451Z,7.07
2019-02-17T05:25:38.528Z,13.29
2019-02-17T05:31:33.463Z,16.54
2019-02-17T05:37:28.521Z,8.84
2019-02-17T05:43:23.492Z,8.33
2019-02-17T05:49:18.504Z,11.62
2019-02-17T05:55:13.493Z,11.36
2019-02-17T06:01:08.509Z,12.83
2019-02-17T06:07:03.515Z,12.1
2019-02-17T06:12:58.513Z,11.67
2019-02-17T06:18:53.540Z,16.35
2019-02-17T06:24:48.500Z,9.64
2019-02-17T06:30:43.519Z,9.8
2019-02-17T06:36:40.822Z,8.48
2019-02-17T06:42:33.516Z,8.92
2019-02-17T06:48:28.524Z,9.38
2019-02-17T06:54:23.513Z,9.66
2019-02-17T07:00:18.540Z,9.14
2019-02-17T07:06:13.590Z,9.53
2019-02-17T07:12:08.551Z,8.61
2019-02-17T07:18:03.576Z,8.97
2019-02-17T07:23:58.561Z,8.54
2019-02-17T07:29:53.604Z,9.46
2019-02-17T07:35:48.531Z,9.51
2019-02-17T07:41:43.554Z,11.18
2019-02-17T07:47:38.560Z,11.67
2019-02-17T07:53:33.553Z,11.87
2019-02-17T07:59:28.547Z,11.64
2019-02-17T08:05:23.575Z,14.18
2019-02-17T08:11:18.605Z,11.39
2019-02-17T08:17:13.558Z,10.93
2019-02-17T08:23:08.575Z,12.1
2019-02-17T08:29:03.575Z,12.22
2019-02-17T08:34:58.574Z,13.16
2019-02-17T08:40:53.575Z,14.85
2019-02-17T08:46:48.576Z,14.46
2019-02-17T08:52:43.609Z,16.1
2019-02-17T08:58:38.605Z,14.86
2019-02-17T09:04:33.593Z,15.72
2019-02-17T09:10:28.599Z,15.18
2019-02-17T09:16:23.611Z,18.53
2019-02-17T09:22:18.640Z,14.56
2019-02-17T09:28:13.606Z,15.38
2019-02-17T09:34:08.634Z,15.04
2019-02-17T09:40:03.617Z,17.4
2019-02-17T09:45:58.618Z,16.24
2019-02-17T09:51:53.633Z,16.52
2019-02-17T09:57:48.599Z,13.78
2019-02-17T10:03:43.612Z,16.06
2019-02-17T10:09:38.621Z,19.72
2019-02-17T10:15:33.628Z,14.05
2019-02-17T10:21:28.661Z,15.54
2019-02-17T10:27:23.688Z,12.57
2019-02-17T10:33:18.652Z,11.45
2019-02-17T10:39:13.661Z,22.66
2019-02-17T10:45:08.637Z,11.03
2019-02-17T10:51:03.691Z,12.38
2019-02-17T10:56:58.669Z,12.21
2019-02-17T11:02:53.637Z,11.26
2019-02-17T11:08:48.669Z,12.95
2019-02-17T11:14:43.806Z,12.64
2019-02-17T11:20:38.683Z,11.21
2019-02-17T11:26:33.664Z,12.48
2019-02-17T11:32:28.712Z,11.89
2019-02-17T11:38:23.673Z,13.39
2019-02-17T11:44:18.675Z,19.76
2019-02-17T11:50:15.640Z,12.75
2019-02-17T11:56:08.681Z,15.32
2019-02-17T12:02:03.700Z,15.49
2019-02-17T12:07:58.691Z,23.48
2019-02-17T12:13:53.681Z,17.39
2019-02-17T12:19:48.705Z,18.37
2019-02-17T12:25:43.717Z,22.84
2019-02-17T12:31:38.719Z,19.22
2019-02-17T12:37:33.716Z,19.32
2019-02-17T12:43:28.717Z,18.8
2019-02-17T12:49:23.749Z,18.31
2019-02-17T12:55:18.761Z,21.03
2019-02-17T13:01:13.741Z,19.67
2019-02-17T13:07:08.706Z,16.99
2019-02-17T13:13:04.771Z,19.96
2019-02-17T13:18:58.731Z,17.95
2019-02-17T13:24:53.711Z,19.66
2019-02-17T13:30:48.760Z,16.54
2019-02-17T13:36:43.753Z,17.98
2019-02-17T13:42:38.738Z,17.09
2019-02-17T13:48:33.741Z,17.73
2019-02-17T13:54:28.743Z,17.32
2019-02-17T14:00:23.766Z,16.9
2019-02-17T14:06:18.756Z,13.3
2019-02-17T14:12:13.753Z,16.27
2019-02-17T14:18:08.784Z,17.56
2019-02-17T14:24:03.762Z,16.33
2019-02-17T14:29:58.775Z,17.24
2019-02-17T14:35:53.777Z,17.81
2019-02-17T14:41:48.788Z,18.1
2019-02-17T14:47:43.767Z,19.2
2019-02-17T14:53:38.851Z,18.76
2019-02-17T14:59:33.808Z,16.64
2019-02-17T15:05:28.836Z,16.44
2019-02-17T15:11:23.920Z,16.79
2019-02-17T15:17:18.825Z,16.22
2019-02-17T15:23:13.794Z,16.49
2019-02-17T15:29:08.805Z,16.85
2019-02-17T15:35:03.799Z,15.66
2019-02-17T15:40:58.823Z,16.56
2019-02-17T15:46:53.794Z,16.5
2019-02-17T15:52:48.797Z,15.98
2019-02-17T15:58:45.014Z,15.91
2019-02-17T16:04:38.832Z,17.07
2019-02-17T16:10:33.814Z,19.1
2019-02-17T16:16:28.911Z,22.36
2019-02-17T16:22:23.818Z,23.48
2019-02-17T16:28:18.839Z,23.41
2019-02-17T16:34:13.828Z,24.25
2019-02-17T16:40:08.832Z,24.4
2019-02-17T16:46:03.823Z,28.16
2019-02-17T16:51:58.898Z,29.23
2019-02-17T16:57:53.896Z,27.78
2019-02-17T17:03:48.850Z,27.54
2019-02-17T17:09:43.903Z,30.06
2019-02-17T17:15:38.855Z,30.44
2019-02-17T17:21:33.956Z,44.96
2019-02-17T17:27:28.867Z,72.56
2019-02-17T17:33:23.916Z,89.08
2019-02-17T17:39:18.879Z,46.49
2019-02-17T17:45:13.877Z,39.64
2019-02-17T17:51:08.911Z,34.81
2019-02-17T17:57:03.898Z,32.34
2019-02-17T18:02:58.875Z,35.8
2019-02-17T18:08:53.877Z,30.89
2019-02-17T18:14:48.990Z,29.07
2019-02-17T18:20:43.880Z,28.43
2019-02-17T18:26:38.892Z,27.08
2019-02-17T18:32:33.904Z,29.43
2019-02-17T18:38:28.926Z,29.34
2019-02-17T18:44:23.959Z,27.7
2019-02-17T18:50:18.913Z,28.27
2019-02-17T18:56:13.911Z,29.13
2019-02-17T19:02:08.907Z,30.78
2019-02-17T19:08:03.915Z,30.31
2019-02-17T19:13:58.958Z,29.65
2019-02-17T19:19:53.901Z,29.31
2019-02-17T19:25:48.947Z,26.24
2019-02-17T19:31:43.933Z,24.12
2019-02-17T19:37:38.949Z,32.86
2019-02-17T19:43:33.949Z,30.86
2019-02-17T19:49:28.939Z,35.42
2019-02-17T19:55:23.965Z,26.86
2019-02-17T20:01:18.947Z,25.73
2019-02-17T20:07:13.955Z,23.81
2019-02-17T20:13:08.951Z,24.87
2019-02-17T20:19:04.018Z,26.1
2019-02-17T20:24:58.981Z,33.41
2019-02-17T20:30:53.948Z,31.71
2019-02-17T20:36:48.950Z,30.03
2019-02-17T20:42:43.961Z,29.25
2019-02-17T20:48:38.984Z,30.64
2019-02-17T20:54:34.004Z,33.3
2019-02-17T21:00:28.985Z,30.55
2019-02-17T21:06:24.016Z,31.24
2019-02-17T21:12:18.999Z,30.81
2019-02-17T21:18:13.979Z,29.7
2019-02-17T21:24:08.977Z,32.87
2019-02-17T21:30:04.013Z,30.98
2019-02-17T21:35:58.986Z,29.49
2019-02-17T21:41:54.012Z,26.87
2019-02-17T21:47:49.017Z,23.76
2019-02-17T21:53:44.034Z,25.49
2019-02-17T21:59:39.049Z,22.02
2019-02-17T22:05:33.996Z,22.35
2019-02-17T22:11:29.084Z,32.32
2019-02-17T22:17:24.029Z,32.87
2019-02-17T22:23:19.009Z,32.25
2019-02-17T22:29:14.085Z,31.47
2019-02-17T22:35:09.028Z,32.82
2019-02-17T22:41:04.018Z,29.7
2019-02-17T22:46:59.040Z,47.35
2019-02-17T22:52:54.084Z,28.82
2019-02-17T22:58:49.034Z,36.64
2019-02-17T23:04:44.054Z,26.27
2019-02-17T23:10:39.045Z,25.74
2019-02-17T23:16:34.032Z,25.16
2019-02-17T23:22:29.118Z,24.61
2019-02-17T23:28:24.088Z,22.63
2019-02-17T23:34:19.038Z,21.19
2019-02-17T23:40:14.082Z,24.4
2019-02-17T23:46:09.068Z,24.45
2019-02-17T23:52:04.099Z,25.43
2019-02-17T23:57:59.053Z,25.14
